User: anonymous   Login
Location: Unspecified
(0.0000°N, 0.0000°E)
Time: 09:14:00
(UTC+00:00)
Language:

BepiColombo Flyby

On April 10 2020, the Mercury probe BepiColombo will fly past the Earth. The Earth will provide a "gravity assist" and is the first of several flybys of the Earth, Venus and Mercury before it arrives in Mercury orbit in 2025. If you know where to look and live in the right part of the world, you will have a chance to see it through binoculars or a telescope. You can use the two general charts below and the following table to get an idea of whether you will be able to see it or not.

Click on a table row to load a finder chart corresponding to that time, or alternatively, you can go straight to a finder chart for a time near closest approach by clicking here.

Note: All times in the tables and charts are given in your local time, adjusted for daylight savings where appropriate.

Flyby data
Time of closest approachApr 10, 04:24:57
Distance of closest approach19,055 km
Speed at closest approach7.596 km/s
Speed at infinity (rel. to Earth)3.984 km/s

Position Table (click on a row of the table to load a finder chart)

Time Distance (km) Brightness Altitude Azimuth Right ascension Declination Constellation Sun altitude
Apr 9, 20:00:00157,39916.0-42.1°286.9°0h 19.6m12° 22'Pisces-29.3°
Apr 9, 20:30:00149,90315.8-49.8°289.2°0h 17.6m12° 7'Pisces-36.7°
Apr 9, 21:00:00142,27715.7-57.4°292.6°0h 15.6m11° 51'Pisces-44.1°
Apr 9, 21:30:00134,50415.5-64.8°298.3°0h 13.4m11° 33'Pisces-51.4°
Apr 9, 22:00:00126,57115.4-71.7°308.9°0h 11.0m11° 13'Pisces-58.7°
Apr 9, 22:30:00118,46415.2-77.4°330.8°0h 8.3m10° 52'Pisces-65.9°
Apr 9, 23:00:00110,17015.0-79.2°10.9°0h 5.3m10° 27'Pisces-72.7°
Apr 9, 23:30:00101,67714.8-75.5°45.6°0h 1.7m9° 59'Pisces-78.8°
Apr 10, 00:00:0092,97114.5-68.8°62.7°23h 57.5m9° 27'Pisces-81.9°
Apr 10, 00:30:0084,03914.2-60.9°71.5°23h 52.4m8° 47'Pegasus-79.2°
Apr 10, 01:00:0074,86613.9-52.2°76.7°23h 45.8m7° 59'Pisces-73.3°
Apr 10, 01:30:0065,43913.5-42.9°80.3°23h 37.3m6° 57'Pisces-66.5°
Apr 10, 02:00:0055,74113.0-32.7°83.3°23h 25.7m5° 33'Pisces-59.3°
Apr 10, 02:30:0045,76512.4-21.2°86.1°23h 9.0m3° 31'Pisces-52.1°
Apr 10, 03:00:0035,54211.7-7.2°89.6°22h 42.8m0° 19'Aquarius-44.8°
Apr 10, 03:30:0025,28810.612.0°95.5°21h 56.2m-5° 29'Aquarius-37.4°
Apr 10, 04:00:0016,2109.243.1°114.1°20h 11.5m-17° 24'Capricornus-30.0°
Apr 10, 04:30:0013,6588.253.0°216.4°16h 8.0m-28° 53'Scorpius-22.6°
Apr 10, 05:00:0020,7108.911.6°249.0°13h 4.1m-20° 27'Virgo-15.2°
Apr 10, 05:30:0030,679--12.9°256.2°11h 51.5m-13° 20'Crater-7.7°
Apr 10, 06:00:0040,87810.5-29.3°259.3°11h 15.7m-9° 14'Crater-0.3°
Apr 10, 06:30:0050,83911.0-42.3°260.9°10h 54.3m-6° 39'Leo7.1°
Apr 10, 07:00:0060,49111.4-53.4°261.6°10h 40.0m-4° 52'Sextans14.5°
Apr 10, 07:30:0069,84211.8-63.6°261.8°10h 29.8m-3° 33'Sextans21.9°
Apr 10, 08:00:0078,91012.0-73.0°260.9°10h 22.1m-2° 33'Sextans29.4°
Apr 10, 08:30:0087,71812.3-82.1°256.5°10h 16.0m-1° 45'Sextans36.7°
Apr 10, 09:00:0096,28512.5-88.4°139.2°10h 11.1m-1° 6'Sextans44.1°
Apr 10, 09:30:00104,63012.7-80.4°93.9°10h 6.9m-0° 33'Sextans51.4°
Apr 10, 10:00:00112,77112.9-72.0°90.6°10h 3.3m-0° 5'Sextans58.7°
Apr 10, 10:30:00120,72413.0-63.7°89.5°10h 0.2m0° 19'Sextans65.8°
Apr 10, 11:00:00128,50613.2-55.5°89.0°9h 57.3m0° 41'Sextans72.7°
Apr 10, 11:30:00136,13613.3-47.3°88.7°9h 54.7m1° 0'Sextans78.7°
Apr 10, 12:00:00143,63113.4-39.1°88.5°9h 52.2m1° 17'Sextans81.8°
 

DLR